createdAt,value
2023-05-14T00:01:09.895Z,83.15
2023-05-14T00:03:37.519Z,84.00
2023-05-14T00:06:04.384Z,85.75
2023-05-14T00:08:30.931Z,84.40
2023-05-14T00:10:57.529Z,84.09
2023-05-14T00:13:24.251Z,84.15
2023-05-14T00:15:51.089Z,84.48
2023-05-14T00:18:18.101Z,83.89
2023-05-14T00:20:44.691Z,83.92
2023-05-14T00:23:11.454Z,83.40
2023-05-14T00:25:38.345Z,84.27
2023-05-14T00:28:05.200Z,83.61
2023-05-14T00:30:32.671Z,83.21
2023-05-14T00:32:59.453Z,83.60
2023-05-14T00:35:26.071Z,83.58
2023-05-14T00:37:52.800Z,82.54
2023-05-14T00:40:19.896Z,82.90
2023-05-14T00:42:46.512Z,81.16
2023-05-14T00:45:13.368Z,79.88
2023-05-14T00:47:40.388Z,81.15
2023-05-14T00:50:07.464Z,81.07
2023-05-14T00:52:34.287Z,81.00
2023-05-14T00:55:04.289Z,79.86
2023-05-14T00:57:31.070Z,80.79
2023-05-14T00:59:58.926Z,79.65
2023-05-14T01:02:26.429Z,78.84
2023-05-14T01:04:53.827Z,78.89
2023-05-14T01:07:47.000Z,79.33
2023-05-14T01:10:24.646Z,80.74
2023-05-14T01:13:38.144Z,79.19
2023-05-14T01:16:08.288Z,78.08
2023-05-14T01:18:35.401Z,79.54
2023-05-14T01:21:02.071Z,78.92
2023-05-14T01:23:28.761Z,77.72
2023-05-14T01:25:55.737Z,78.33
2023-05-14T01:28:32.659Z,77.61
2023-05-14T01:31:18.275Z,76.98
2023-05-14T01:33:48.375Z,77.38
2023-05-14T01:36:15.612Z,77.28
2023-05-14T01:38:45.772Z,77.15
2023-05-14T01:41:14.415Z,76.26
2023-05-14T01:43:41.400Z,77.82
2023-05-14T01:46:08.135Z,76.86
2023-05-14T01:48:35.097Z,77.16
2023-05-14T01:51:02.547Z,77.62
2023-05-14T01:53:29.184Z,76.10
2023-05-14T01:55:56.025Z,77.42
2023-05-14T01:58:22.738Z,77.89
2023-05-14T02:00:49.311Z,78.15
2023-05-14T02:03:15.867Z,80.43
2023-05-14T02:05:42.503Z,78.61
2023-05-14T02:08:09.122Z,78.27
2023-05-14T02:10:36.061Z,78.51
2023-05-14T02:13:03.839Z,77.65
2023-05-14T02:15:30.838Z,77.92
2023-05-14T02:17:57.469Z,78.25
2023-05-14T02:20:24.266Z,79.20
2023-05-14T02:22:51.346Z,80.07
2023-05-14T02:25:17.976Z,80.47
2023-05-14T02:27:44.793Z,79.85
2023-05-14T02:30:12.632Z,78.17
2023-05-14T02:32:39.397Z,80.03
2023-05-14T02:35:06.828Z,78.28
2023-05-14T02:37:34.775Z,79.24
2023-05-14T02:40:01.529Z,78.36
2023-05-14T02:42:28.148Z,78.95
2023-05-14T02:44:54.851Z,78.63
2023-05-14T02:47:21.654Z,78.85
2023-05-14T02:49:48.515Z,79.38
2023-05-14T02:52:15.091Z,79.05
2023-05-14T02:54:41.848Z,79.90
2023-05-14T02:57:08.675Z,82.22
2023-05-14T02:59:36.230Z,81.42
2023-05-14T03:02:03.451Z,81.65
2023-05-14T03:04:30.398Z,82.52
2023-05-14T03:06:57.087Z,82.47
2023-05-14T03:09:23.901Z,83.19
2023-05-14T03:11:50.819Z,82.80
2023-05-14T03:14:17.578Z,82.97
2023-05-14T03:16:44.224Z,83.83
2023-05-14T03:19:12.044Z,83.66
2023-05-14T03:21:38.820Z,83.70
2023-05-14T03:24:05.791Z,84.21
2023-05-14T03:26:32.380Z,84.48
2023-05-14T03:28:58.948Z,84.74
2023-05-14T03:31:25.860Z,83.91
2023-05-14T03:33:52.578Z,85.06
2023-05-14T03:36:19.169Z,84.92
2023-05-14T03:38:47.596Z,84.26
2023-05-14T03:41:15.243Z,84.31
2023-05-14T03:43:42.410Z,84.49
2023-05-14T03:46:09.468Z,83.30
2023-05-14T03:48:36.326Z,83.66
2023-05-14T03:51:04.866Z,82.42
2023-05-14T03:53:31.632Z,83.68
2023-05-14T03:55:58.269Z,82.60
2023-05-14T03:58:24.874Z,81.98
2023-05-14T04:00:51.457Z,81.39
2023-05-14T04:03:18.179Z,82.53
2023-05-14T04:05:44.808Z,83.34
2023-05-14T04:08:12.146Z,84.50
2023-05-14T04:10:38.728Z,85.01
2023-05-14T04:13:05.365Z,84.49
2023-05-14T04:15:39.383Z,85.37
2023-05-14T04:18:06.290Z,84.95
2023-05-14T04:20:33.110Z,85.08
2023-05-14T04:22:59.829Z,83.60
2023-05-14T04:25:26.337Z,83.78
2023-05-14T04:27:53.033Z,83.80
2023-05-14T04:30:19.883Z,83.07
2023-05-14T04:32:46.672Z,84.15
2023-05-14T04:35:13.309Z,85.15
2023-05-14T04:37:40.488Z,82.53
2023-05-14T04:40:11.068Z,82.44
2023-05-14T04:42:37.721Z,83.28
2023-05-14T04:45:06.212Z,85.03
2023-05-14T04:47:32.913Z,85.78
2023-05-14T04:49:59.475Z,83.03
2023-05-14T04:52:26.324Z,82.64
2023-05-14T04:54:53.047Z,82.38
2023-05-14T04:57:19.783Z,81.16
2023-05-14T04:59:46.374Z,81.12
2023-05-14T05:02:12.977Z,81.22
2023-05-14T05:04:39.598Z,81.10
2023-05-14T05:07:06.334Z,80.91
2023-05-14T05:09:33.039Z,82.46
2023-05-14T05:12:01.446Z,82.65
2023-05-14T05:14:28.099Z,82.70
2023-05-14T05:16:54.790Z,83.05
2023-05-14T05:19:29.105Z,82.20
2023-05-14T05:21:56.091Z,81.32
2023-05-14T05:24:22.705Z,80.20
2023-05-14T05:26:50.184Z,78.91
2023-05-14T05:29:16.884Z,78.34
2023-05-14T05:31:43.632Z,79.79
2023-05-14T05:34:10.348Z,79.84
2023-05-14T05:36:36.904Z,79.97
2023-05-14T05:39:03.507Z,79.44
2023-05-14T05:41:30.362Z,78.51
2023-05-14T05:43:56.976Z,79.63
2023-05-14T05:46:23.564Z,78.89
2023-05-14T05:48:50.075Z,78.88
2023-05-14T05:51:16.679Z,78.55
2023-05-14T05:53:43.356Z,79.51
2023-05-14T05:56:09.976Z,78.42
2023-05-14T05:58:37.154Z,77.93
2023-05-14T06:01:03.935Z,77.65
2023-05-14T06:03:30.715Z,78.19
2023-05-14T06:05:57.672Z,79.19
2023-05-14T06:08:24.297Z,79.50
2023-05-14T06:10:51.048Z,80.46
2023-05-14T06:13:17.660Z,79.74
2023-05-14T06:15:44.301Z,78.05
2023-05-14T06:18:10.964Z,77.85
2023-05-14T06:20:37.770Z,79.05
2023-05-14T06:23:04.429Z,79.04
2023-05-14T06:25:31.086Z,79.72
2023-05-14T06:27:57.681Z,80.42
2023-05-14T06:30:24.627Z,79.67
2023-05-14T06:32:51.878Z,78.59
2023-05-14T06:35:19.257Z,77.72
2023-05-14T06:37:45.973Z,78.35
2023-05-14T06:40:15.742Z,77.78
2023-05-14T06:42:42.531Z,77.92
2023-05-14T06:45:09.417Z,77.59
2023-05-14T06:47:37.190Z,79.02
2023-05-14T06:50:04.332Z,78.64
2023-05-14T06:52:31.032Z,78.63
2023-05-14T06:54:57.696Z,78.60
2023-05-14T06:57:24.687Z,79.53
2023-05-14T06:59:51.280Z,80.07
2023-05-14T07:02:17.895Z,81.31
2023-05-14T07:04:44.497Z,80.92
2023-05-14T07:07:15.210Z,79.77
2023-05-14T07:09:42.273Z,77.00
2023-05-14T07:12:09.143Z,76.43
2023-05-14T07:14:35.702Z,73.21
2023-05-14T07:17:02.336Z,71.94
2023-05-14T07:19:30.129Z,72.53
2023-05-14T07:21:57.742Z,71.41
2023-05-14T07:24:24.173Z,69.42
2023-05-14T07:26:50.896Z,68.85
2023-05-14T07:29:17.558Z,67.56
2023-05-14T07:31:44.224Z,67.75
2023-05-14T07:34:11.590Z,67.22
2023-05-14T07:36:38.635Z,65.95
2023-05-14T07:39:05.431Z,62.91
2023-05-14T07:41:32.116Z,62.45
2023-05-14T07:43:58.683Z,61.95
2023-05-14T07:46:25.881Z,61.14
2023-05-14T07:48:52.459Z,57.59
2023-05-14T07:51:19.035Z,58.10
2023-05-14T07:53:45.791Z,56.45
2023-05-14T07:56:12.420Z,54.85
2023-05-14T07:58:39.205Z,55.19
2023-05-14T08:01:09.088Z,54.83
2023-05-14T08:03:36.247Z,53.33
2023-05-14T08:06:04.104Z,53.78
2023-05-14T08:08:30.822Z,55.40
2023-05-14T08:10:57.526Z,57.76
2023-05-14T08:13:24.280Z,58.45
2023-05-14T08:15:51.330Z,58.28
2023-05-14T08:18:18.039Z,57.58
2023-05-14T08:20:44.667Z,57.90
2023-05-14T08:23:11.406Z,61.39
2023-05-14T08:25:38.074Z,62.22
2023-05-14T08:28:04.943Z,67.90
2023-05-14T08:30:31.630Z,66.93
2023-05-14T08:32:58.931Z,68.06
2023-05-14T08:35:25.782Z,66.18
2023-05-14T08:37:52.568Z,66.41
2023-05-14T08:40:19.409Z,63.29
2023-05-14T08:42:47.568Z,62.96
2023-05-14T08:45:19.819Z,62.92
2023-05-14T08:47:51.140Z,64.08
2023-05-14T08:50:21.916Z,63.05
2023-05-14T08:52:49.977Z,62.68
2023-05-14T08:55:16.670Z,61.46
2023-05-14T08:57:43.387Z,61.88
2023-05-14T09:00:13.448Z,58.71
2023-05-14T09:02:41.648Z,55.47
2023-05-14T09:05:09.304Z,54.59
2023-05-14T09:07:36.506Z,57.83
2023-05-14T09:10:04.002Z,54.55
2023-05-14T09:12:31.188Z,55.66
2023-05-14T09:14:57.975Z,59.27
2023-05-14T09:17:27.601Z,60.37
2023-05-14T09:19:54.689Z,60.72
2023-05-14T09:22:21.589Z,60.04
2023-05-14T09:25:03.501Z,59.13
2023-05-14T09:27:31.906Z,58.96
2023-05-14T09:30:10.189Z,57.70
2023-05-14T09:32:38.812Z,52.63
2023-05-14T09:35:19.078Z,50.61
2023-05-14T09:37:51.178Z,49.24
2023-05-14T09:40:20.280Z,49.66
2023-05-14T09:42:49.012Z,46.45
2023-05-14T09:45:16.891Z,48.47
2023-05-14T09:47:45.163Z,45.72
2023-05-14T09:50:12.262Z,45.20
2023-05-14T09:52:39.510Z,45.55
2023-05-14T09:55:06.985Z,42.14
2023-05-14T09:57:34.561Z,43.69
2023-05-14T10:00:01.410Z,40.57
2023-05-14T10:02:41.307Z,40.35
2023-05-14T10:05:08.929Z,41.17
2023-05-14T10:07:41.652Z,41.00
2023-05-14T10:10:13.707Z,40.40
2023-05-14T10:12:40.872Z,39.41
2023-05-14T10:15:16.660Z,40.83
2023-05-14T10:17:49.945Z,43.29
2023-05-14T10:20:17.579Z,44.01
2023-05-14T10:22:44.398Z,44.47
2023-05-14T10:25:11.557Z,44.41
2023-05-14T10:27:38.985Z,46.07
2023-05-14T10:30:10.473Z,43.79
2023-05-14T10:32:38.109Z,42.91
2023-05-14T10:35:17.145Z,42.02
2023-05-14T10:37:45.082Z,40.53
2023-05-14T10:40:13.331Z,42.26
2023-05-14T10:42:40.928Z,42.90
2023-05-14T10:45:09.255Z,45.39
2023-05-14T10:47:37.371Z,46.03
2023-05-14T10:50:06.117Z,44.73
2023-05-14T10:52:33.947Z,43.38
2023-05-14T10:55:07.791Z,44.29
2023-05-14T10:57:36.579Z,45.09
2023-05-14T11:00:03.789Z,43.87
2023-05-14T11:02:37.665Z,41.96
2023-05-14T11:05:08.241Z,42.15
2023-05-14T11:07:37.921Z,42.35
2023-05-14T11:10:09.350Z,41.90
2023-05-14T11:12:38.478Z,40.47
2023-05-14T11:15:11.049Z,40.29
2023-05-14T11:17:40.305Z,38.05
2023-05-14T11:20:08.800Z,36.25
2023-05-14T11:22:36.806Z,35.86
2023-05-14T11:25:04.393Z,35.44
2023-05-14T11:27:34.236Z,34.65
2023-05-14T11:30:03.961Z,35.28
2023-05-14T11:32:35.380Z,34.50
2023-05-14T11:35:02.354Z,32.56
2023-05-14T11:37:30.659Z,33.00
2023-05-14T11:40:01.333Z,33.70
2023-05-14T11:42:28.171Z,36.07
2023-05-14T11:44:54.828Z,35.53
2023-05-14T11:47:22.251Z,35.65
2023-05-14T11:49:49.362Z,37.01
2023-05-14T11:52:19.352Z,37.01
2023-05-14T11:54:46.344Z,37.81
2023-05-14T11:57:16.392Z,40.98
2023-05-14T11:59:43.328Z,40.99
2023-05-14T12:02:15.118Z,41.47
2023-05-14T12:04:42.886Z,42.00
2023-05-14T12:07:11.929Z,42.45
2023-05-14T12:09:45.074Z,42.75
2023-05-14T12:12:12.759Z,42.84
2023-05-14T12:14:42.670Z,42.31
2023-05-14T12:17:15.115Z,41.75
2023-05-14T12:19:43.615Z,38.83
2023-05-14T12:22:11.735Z,38.69
2023-05-14T12:24:39.273Z,38.47
2023-05-14T12:27:07.442Z,39.16
2023-05-14T12:29:40.909Z,38.81
2023-05-14T12:32:09.404Z,40.15
2023-05-14T12:34:37.687Z,40.16
2023-05-14T12:37:05.500Z,38.89
2023-05-14T12:39:34.165Z,39.58
2023-05-14T12:42:01.555Z,38.75
2023-05-14T12:44:28.355Z,38.21
2023-05-14T12:46:55.229Z,37.41
2023-05-14T12:49:21.841Z,36.20
2023-05-14T12:51:48.777Z,37.18
2023-05-14T12:54:16.776Z,35.98
2023-05-14T12:56:43.450Z,37.09
2023-05-14T12:59:10.607Z,35.10
2023-05-14T13:01:38.245Z,33.03
2023-05-14T13:04:05.814Z,34.70
2023-05-14T13:06:32.765Z,33.36
2023-05-14T13:09:01.776Z,32.00
2023-05-14T13:11:30.320Z,33.24
2023-05-14T13:13:57.392Z,30.61
2023-05-14T13:16:25.457Z,31.82
2023-05-14T13:18:52.179Z,30.97
2023-05-14T13:21:22.403Z,31.95
2023-05-14T13:23:49.225Z,29.14
2023-05-14T13:26:16.203Z,29.16
2023-05-14T13:28:43.219Z,28.99
2023-05-14T13:31:16.897Z,28.13
2023-05-14T13:33:44.552Z,29.60
2023-05-14T13:36:14.468Z,28.23
2023-05-14T13:38:41.482Z,28.23
2023-05-14T13:41:08.482Z,29.76
2023-05-14T13:43:35.841Z,30.22
2023-05-14T13:46:05.306Z,28.99
2023-05-14T13:48:32.288Z,29.31
2023-05-14T13:50:59.294Z,28.38
2023-05-14T13:53:26.125Z,27.27
2023-05-14T13:56:00.820Z,29.50
2023-05-14T13:58:28.642Z,27.97
2023-05-14T14:00:55.393Z,27.20
2023-05-14T14:03:22.216Z,28.73
2023-05-14T14:05:48.934Z,27.92
2023-05-14T14:08:23.294Z,28.41
2023-05-14T14:10:52.151Z,31.31
2023-05-14T14:13:18.795Z,31.77
2023-05-14T14:15:45.647Z,30.35
2023-05-14T14:18:12.405Z,29.71
2023-05-14T14:20:39.032Z,30.34
2023-05-14T14:23:05.758Z,29.66
2023-05-14T14:25:32.402Z,32.01
2023-05-14T14:27:59.114Z,32.72
2023-05-14T14:30:25.760Z,32.58
2023-05-14T14:32:52.533Z,32.83
2023-05-14T14:35:20.026Z,34.44
2023-05-14T14:37:52.203Z,34.97
2023-05-14T14:40:19.130Z,34.10
2023-05-14T14:42:45.795Z,35.44
2023-05-14T14:45:12.715Z,36.86
2023-05-14T14:47:43.996Z,38.05
2023-05-14T14:50:11.213Z,36.58
2023-05-14T14:52:38.040Z,37.53
2023-05-14T14:55:05.182Z,36.92
2023-05-14T14:57:31.909Z,37.79
2023-05-14T14:59:59.822Z,37.55
2023-05-14T15:02:27.668Z,37.38
2023-05-14T15:04:54.785Z,37.99
2023-05-14T15:07:22.176Z,39.35
2023-05-14T15:09:49.214Z,38.22
2023-05-14T15:12:17.094Z,38.53
2023-05-14T15:14:43.714Z,38.75
2023-05-14T15:17:10.627Z,38.27
2023-05-14T15:19:37.340Z,38.81
2023-05-14T15:22:04.523Z,39.14
2023-05-14T15:24:31.162Z,37.92
2023-05-14T15:26:57.777Z,37.90
2023-05-14T15:29:24.385Z,38.86
2023-05-14T15:31:51.142Z,38.43
2023-05-14T15:34:17.932Z,38.77
2023-05-14T15:36:44.462Z,39.17
2023-05-14T15:39:11.265Z,39.11
2023-05-14T15:41:38.058Z,40.32
2023-05-14T15:44:04.970Z,39.56
2023-05-14T15:46:32.226Z,40.28
2023-05-14T15:48:59.102Z,38.60
2023-05-14T15:51:25.640Z,37.50
2023-05-14T15:53:55.475Z,37.62
2023-05-14T15:56:22.893Z,37.69
2023-05-14T15:58:49.829Z,36.78
2023-05-14T16:01:16.712Z,36.95
2023-05-14T16:03:43.668Z,36.55
2023-05-14T16:06:11.607Z,36.07
2023-05-14T16:08:38.562Z,38.86
2023-05-14T16:11:06.319Z,38.90
2023-05-14T16:13:33.348Z,39.54
2023-05-14T16:16:00.236Z,39.31
2023-05-14T16:18:26.954Z,39.57
2023-05-14T16:20:53.643Z,38.56
2023-05-14T16:23:20.401Z,38.33
2023-05-14T16:25:47.195Z,39.30
2023-05-14T16:28:13.926Z,39.32
2023-05-14T16:30:40.470Z,39.36
2023-05-14T16:33:07.442Z,40.75
2023-05-14T16:35:34.184Z,41.86
2023-05-14T16:38:01.602Z,41.73
2023-05-14T16:40:28.375Z,41.72
2023-05-14T16:42:54.911Z,40.99
2023-05-14T16:45:21.704Z,42.35
2023-05-14T16:47:48.755Z,42.55
2023-05-14T16:50:15.421Z,42.20
2023-05-14T16:52:42.109Z,43.50
2023-05-14T16:55:09.217Z,43.71
2023-05-14T16:57:35.829Z,43.32
2023-05-14T17:00:05.977Z,43.09
2023-05-14T17:02:33.748Z,43.46
2023-05-14T17:05:00.576Z,43.51
2023-05-14T17:07:27.423Z,43.32
2023-05-14T17:09:54.131Z,43.36
2023-05-14T17:12:20.875Z,43.01
2023-05-14T17:14:47.501Z,44.65
2023-05-14T17:17:14.708Z,44.11
2023-05-14T17:19:42.408Z,43.64
2023-05-14T17:22:09.117Z,41.87
2023-05-14T17:24:36.503Z,41.12
2023-05-14T17:27:03.450Z,40.73
2023-05-14T17:29:30.122Z,40.91
2023-05-14T17:31:56.972Z,40.87
2023-05-14T17:34:24.160Z,41.19
2023-05-14T17:36:50.962Z,40.99
2023-05-14T17:39:17.600Z,40.92
2023-05-14T17:41:44.303Z,40.67
2023-05-14T17:44:12.820Z,40.66
2023-05-14T17:46:41.541Z,40.33
2023-05-14T17:49:08.352Z,40.40
2023-05-14T17:51:34.993Z,39.35
2023-05-14T17:54:01.843Z,38.48
2023-05-14T17:56:29.578Z,38.25
2023-05-14T17:58:56.257Z,37.37
2023-05-14T18:01:22.969Z,37.44
2023-05-14T18:03:49.889Z,38.40
2023-05-14T18:06:16.868Z,39.37
2023-05-14T18:08:43.656Z,39.69
2023-05-14T18:11:10.199Z,40.15
2023-05-14T18:13:36.818Z,40.66
2023-05-14T18:16:03.836Z,40.53
2023-05-14T18:18:30.890Z,41.41
2023-05-14T18:20:58.181Z,40.97
2023-05-14T18:23:24.830Z,41.15
2023-05-14T18:25:51.536Z,40.67
2023-05-14T18:28:18.958Z,41.15
2023-05-14T18:30:45.637Z,40.74
2023-05-14T18:33:12.431Z,41.23
2023-05-14T18:35:39.241Z,40.85
2023-05-14T18:38:07.870Z,40.90
2023-05-14T18:40:34.797Z,41.33
2023-05-14T18:43:01.434Z,41.11
2023-05-14T18:45:28.106Z,41.04
2023-05-14T18:47:55.255Z,41.93
2023-05-14T18:50:21.883Z,41.81
2023-05-14T18:52:48.512Z,42.17
2023-05-14T18:55:15.245Z,42.24
2023-05-14T18:57:41.887Z,42.40
2023-05-14T19:00:09.069Z,42.34
2023-05-14T19:02:36.059Z,42.34
2023-05-14T19:05:02.763Z,42.74
2023-05-14T19:07:30.414Z,43.17
2023-05-14T19:09:57.028Z,43.17
2023-05-14T19:12:23.789Z,43.95
2023-05-14T19:14:50.565Z,44.21
2023-05-14T19:17:18.591Z,43.89
2023-05-14T19:19:47.008Z,43.81
2023-05-14T19:22:13.671Z,44.63
2023-05-14T19:24:40.408Z,45.10
2023-05-14T19:27:07.756Z,45.27
2023-05-14T19:29:36.655Z,45.34
2023-05-14T19:32:04.706Z,45.73
2023-05-14T19:34:31.575Z,46.68
2023-05-14T19:36:58.208Z,47.13
2023-05-14T19:39:24.905Z,47.35
2023-05-14T19:41:51.512Z,46.93
2023-05-14T19:44:18.134Z,47.32
2023-05-14T19:46:45.129Z,47.32
2023-05-14T19:49:12.188Z,47.15
2023-05-14T19:51:39.380Z,47.16
2023-05-14T19:54:06.665Z,46.59
2023-05-14T19:56:33.442Z,48.94
2023-05-14T19:58:59.981Z,50.64
2023-05-14T20:01:26.852Z,53.97
2023-05-14T20:03:53.475Z,57.16
2023-05-14T20:06:20.331Z,57.42
2023-05-14T20:08:46.919Z,56.89
2023-05-14T20:11:15.524Z,58.93
2023-05-14T20:13:42.108Z,59.45
2023-05-14T20:16:08.792Z,58.72
2023-05-14T20:18:35.541Z,56.14
2023-05-14T20:21:02.176Z,57.82
2023-05-14T20:23:28.742Z,59.56
2023-05-14T20:25:55.715Z,61.29
2023-05-14T20:28:22.314Z,61.96
2023-05-14T20:30:49.008Z,64.49
2023-05-14T20:33:15.999Z,65.66
2023-05-14T20:35:44.019Z,69.03
2023-05-14T20:38:12.737Z,68.34
2023-05-14T20:40:40.004Z,69.93
2023-05-14T20:43:06.577Z,69.36
2023-05-14T20:45:33.404Z,69.92
2023-05-14T20:47:59.979Z,69.60
2023-05-14T20:50:27.792Z,70.28
2023-05-14T20:52:55.141Z,71.56
2023-05-14T20:55:21.781Z,68.91
2023-05-14T20:57:49.643Z,69.42
2023-05-14T21:00:16.672Z,70.92
2023-05-14T21:02:43.519Z,70.01
2023-05-14T21:05:10.370Z,67.71
2023-05-14T21:07:37.360Z,70.14
2023-05-14T21:10:04.605Z,67.22
2023-05-14T21:12:31.229Z,66.48
2023-05-14T21:14:57.796Z,66.53
2023-05-14T21:17:24.661Z,68.29
2023-05-14T21:19:51.435Z,69.01
2023-05-14T21:22:18.103Z,69.56
2023-05-14T21:24:44.796Z,68.62
2023-05-14T21:27:11.573Z,67.64
2023-05-14T21:29:39.616Z,67.66
2023-05-14T21:32:06.911Z,66.45
2023-05-14T21:34:33.766Z,66.95
2023-05-14T21:37:00.803Z,68.22
2023-05-14T21:39:27.464Z,69.51
2023-05-14T21:41:54.127Z,69.19
2023-05-14T21:44:21.779Z,69.51
2023-05-14T21:46:48.358Z,68.33
2023-05-14T21:49:14.905Z,67.55
2023-05-14T21:51:42.686Z,67.91
2023-05-14T21:54:09.706Z,66.87
2023-05-14T21:56:37.212Z,67.41
2023-05-14T21:59:03.935Z,67.93
2023-05-14T22:01:31.639Z,68.36
2023-05-14T22:03:59.144Z,68.41
2023-05-14T22:06:25.852Z,68.51
2023-05-14T22:08:52.457Z,69.62
2023-05-14T22:11:19.042Z,70.79
2023-05-14T22:13:45.609Z,71.21
2023-05-14T22:16:13.691Z,71.28
2023-05-14T22:18:41.599Z,70.99
2023-05-14T22:21:08.417Z,71.37
2023-05-14T22:23:35.158Z,71.49
2023-05-14T22:26:01.788Z,71.55
2023-05-14T22:28:28.470Z,72.29
2023-05-14T22:30:56.480Z,72.33
2023-05-14T22:33:23.230Z,72.67
2023-05-14T22:35:49.871Z,73.40
2023-05-14T22:38:16.449Z,73.68
2023-05-14T22:40:43.164Z,73.37
2023-05-14T22:43:09.762Z,74.03
2023-05-14T22:45:36.426Z,73.95
2023-05-14T22:48:03.160Z,73.71
2023-05-14T22:50:29.784Z,74.02
2023-05-14T22:52:56.392Z,74.26
2023-05-14T22:55:23.459Z,74.53
2023-05-14T22:57:50.610Z,75.08
2023-05-14T23:00:17.489Z,74.87
2023-05-14T23:02:44.394Z,75.05
2023-05-14T23:05:11.080Z,74.75
2023-05-14T23:07:37.785Z,74.93
2023-05-14T23:10:05.105Z,74.82
2023-05-14T23:12:31.757Z,75.29
2023-05-14T23:14:59.146Z,76.22
2023-05-14T23:17:25.960Z,75.53
2023-05-14T23:19:52.918Z,75.96
2023-05-14T23:22:20.322Z,76.37
2023-05-14T23:24:46.899Z,74.75
2023-05-14T23:27:13.532Z,75.40
2023-05-14T23:29:40.261Z,74.99
2023-05-14T23:32:07.389Z,76.41
2023-05-14T23:34:34.665Z,75.75
2023-05-14T23:37:01.482Z,76.30
2023-05-14T23:39:28.160Z,77.10
2023-05-14T23:41:54.773Z,77.58
2023-05-14T23:44:21.496Z,77.48
2023-05-14T23:46:48.169Z,78.17
2023-05-14T23:49:14.933Z,78.69
2023-05-14T23:51:41.595Z,79.89
2023-05-14T23:54:08.321Z,80.21
2023-05-14T23:56:35.976Z,80.91
2023-05-14T23:59:03.592Z,81.19
